<?xml version="1.0" encoding="utf-8"?>
<gpx xmlns:xsi="http://www.w3.org/2001/XMLSchema-instance" xmlns:xsd="http://www.w3.org/2001/XMLSchema" version="1.1" creator="Shapelink.com" xmlns="http://www.topografix.com/GPX/1/1" xmlns:gpxtpx="http://www.garmin.com/xmlschemas/TrackPointExtension/v1">
  <metadata>
    <name>Cycling 9.05 km, 2020-07-20</name>
    <desc></desc>
    <author><name>Marian Moron</name></author> 
    <time>2020-07-20T16:22:55Z</time>
  </metadata>
  <trk>
    <name>Cycling 9.05 km, 2020-07-20</name>
    <trkseg>
      <trkpt lat="51.228739243643" lon="4.448915126255">
        <ele>0</ele>
        <time>2020-07-20T16:22:55Z</time>
      </trkpt>
      <trkpt lat="51.228749972475" lon="4.448779674751">
        <ele>5.2</ele>
        <time>2020-07-20T16:23:01Z</time>
      </trkpt>
      <trkpt lat="51.228721306377" lon="4.448805155727">
        <ele>8.2</ele>
        <time>2020-07-20T16:23:04Z</time>
      </trkpt>
      <trkpt lat="51.228544280649" lon="4.448944462905">
        <ele>4.4</ele>
        <time>2020-07-20T16:23:17Z</time>
      </trkpt>
      <trkpt lat="51.228531540161" lon="4.448920825947">
        <ele>3.4</ele>
        <time>2020-07-20T16:23:19Z</time>
      </trkpt>
      <trkpt lat="51.228653077711" lon="4.448801132415">
        <ele>1.6</ele>
        <time>2020-07-20T16:23:27Z</time>
      </trkpt>
      <trkpt lat="51.228672104624" lon="4.448845305028">
        <ele>1.4</ele>
        <time>2020-07-20T16:23:29Z</time>
      </trkpt>
      <trkpt lat="51.228665231466" lon="4.448898530093">
        <ele>1.2</ele>
        <time>2020-07-20T16:23:31Z</time>
      </trkpt>
      <trkpt lat="51.228639834309" lon="4.448926944734">
        <ele>1</ele>
        <time>2020-07-20T16:23:33Z</time>
      </trkpt>
      <trkpt lat="51.228608318365" lon="4.448904145966">
        <ele>1.2</ele>
        <time>2020-07-20T16:23:35Z</time>
      </trkpt>
      <trkpt lat="51.228608150727" lon="4.448847316684">
        <ele>1.2</ele>
        <time>2020-07-20T16:23:37Z</time>
      </trkpt>
      <trkpt lat="51.228791798156" lon="4.448619077547">
        <ele>0</ele>
        <time>2020-07-20T16:23:48Z</time>
      </trkpt>
      <trkpt lat="51.228814010191" lon="4.448645480532">
        <ele>0</ele>
        <time>2020-07-20T16:23:50Z</time>
      </trkpt>
      <trkpt lat="51.228813674915" lon="4.448690826611">
        <ele>0</ele>
        <time>2020-07-20T16:23:52Z</time>
      </trkpt>
      <trkpt lat="51.228791630518" lon="4.448726030591">
        <ele>0</ele>
        <time>2020-07-20T16:23:54Z</time>
      </trkpt>
      <trkpt lat="51.228956837767" lon="4.448356304982">
        <ele>0</ele>
        <time>2020-07-20T16:24:18Z</time>
      </trkpt>
      <trkpt lat="51.228578981715" lon="4.447728333034">
        <ele>0</ele>
        <time>2020-07-20T16:24:42Z</time>
      </trkpt>
      <trkpt lat="51.228252674348" lon="4.447126680252">
        <ele>0</ele>
        <time>2020-07-20T16:25:09Z</time>
      </trkpt>
      <trkpt lat="51.22817874599" lon="4.447222150093">
        <ele>0</ele>
        <time>2020-07-20T16:25:14Z</time>
      </trkpt>
      <trkpt lat="51.227939694202" lon="4.447474948197">
        <ele>9</ele>
        <time>2020-07-20T16:57:09Z</time>
      </trkpt>
      <trkpt lat="51.227574159543" lon="4.448168215146">
        <ele>1.4</ele>
        <time>2020-07-20T16:57:25Z</time>
      </trkpt>
      <trkpt lat="51.227190855256" lon="4.448805658641">
        <ele>0</ele>
        <time>2020-07-20T16:57:42Z</time>
      </trkpt>
      <trkpt lat="51.22702791112" lon="4.449266830779">
        <ele>0</ele>
        <time>2020-07-20T16:57:57Z</time>
      </trkpt>
      <trkpt lat="51.226574366511" lon="4.449714843334">
        <ele>1.4</ele>
        <time>2020-07-20T16:58:21Z</time>
      </trkpt>
      <trkpt lat="51.226147308706" lon="4.450316579935">
        <ele>0.6</ele>
        <time>2020-07-20T16:58:40Z</time>
      </trkpt>
      <trkpt lat="51.225696194848" lon="4.450875904122">
        <ele>0.2</ele>
        <time>2020-07-20T16:58:58Z</time>
      </trkpt>
      <trkpt lat="51.225266957749" lon="4.451427936056">
        <ele>0</ele>
        <time>2020-07-20T16:59:15Z</time>
      </trkpt>
      <trkpt lat="51.225007454125" lon="4.452152216035">
        <ele>0</ele>
        <time>2020-07-20T16:59:31Z</time>
      </trkpt>
      <trkpt lat="51.224462882082" lon="4.452046855552">
        <ele>0.8</ele>
        <time>2020-07-20T16:59:47Z</time>
      </trkpt>
      <trkpt lat="51.22392996088" lon="4.451777209829">
        <ele>1.8</ele>
        <time>2020-07-20T17:00:02Z</time>
      </trkpt>
      <trkpt lat="51.223499885591" lon="4.451265243377">
        <ele>0.4</ele>
        <time>2020-07-20T17:00:17Z</time>
      </trkpt>
      <trkpt lat="51.222973418452" lon="4.451062317578">
        <ele>0.6</ele>
        <time>2020-07-20T17:00:32Z</time>
      </trkpt>
      <trkpt lat="51.222415770645" lon="4.451074387514">
        <ele>0</ele>
        <time>2020-07-20T17:00:48Z</time>
      </trkpt>
      <trkpt lat="51.221884274366" lon="4.451336154251">
        <ele>0</ele>
        <time>2020-07-20T17:01:06Z</time>
      </trkpt>
      <trkpt lat="51.221362417272" lon="4.451563806655">
        <ele>0</ele>
        <time>2020-07-20T17:01:27Z</time>
      </trkpt>
      <trkpt lat="51.220807535492" lon="4.451695067209">
        <ele>0</ele>
        <time>2020-07-20T17:01:48Z</time>
      </trkpt>
      <trkpt lat="51.220259694508" lon="4.451835715491">
        <ele>0</ele>
        <time>2020-07-20T17:02:07Z</time>
      </trkpt>
      <trkpt lat="51.219695341181" lon="4.45200762826">
        <ele>0</ele>
        <time>2020-07-20T17:02:26Z</time>
      </trkpt>
      <trkpt lat="51.219118834099" lon="4.45206797794">
        <ele>0</ele>
        <time>2020-07-20T17:02:41Z</time>
      </trkpt>
      <trkpt lat="51.219032584348" lon="4.451998994903">
        <ele>0</ele>
        <time>2020-07-20T17:02:43Z</time>
      </trkpt>
      <trkpt lat="51.218880871958" lon="4.451760529848">
        <ele>0</ele>
        <time>2020-07-20T17:02:47Z</time>
      </trkpt>
      <trkpt lat="51.218787329954" lon="4.451693223191">
        <ele>0</ele>
        <time>2020-07-20T17:02:49Z</time>
      </trkpt>
      <trkpt lat="51.218646597853" lon="4.451646536008">
        <ele>0</ele>
        <time>2020-07-20T17:02:52Z</time>
      </trkpt>
      <trkpt lat="51.218494214911" lon="4.451672938993">
        <ele>0</ele>
        <time>2020-07-20T17:02:55Z</time>
      </trkpt>
      <trkpt lat="51.218265137584" lon="4.452352291988">
        <ele>0</ele>
        <time>2020-07-20T17:03:16Z</time>
      </trkpt>
      <trkpt lat="51.218186850638" lon="4.453255190256">
        <ele>0</ele>
        <time>2020-07-20T17:03:33Z</time>
      </trkpt>
      <trkpt lat="51.218143851491" lon="4.454153646117">
        <ele>0</ele>
        <time>2020-07-20T17:03:50Z</time>
      </trkpt>
      <trkpt lat="51.218124573121" lon="4.455019831663">
        <ele>0</ele>
        <time>2020-07-20T17:04:07Z</time>
      </trkpt>
      <trkpt lat="51.218087106028" lon="4.455915689135">
        <ele>0.4</ele>
        <time>2020-07-20T17:04:25Z</time>
      </trkpt>
      <trkpt lat="51.218029270918" lon="4.456794112255">
        <ele>0</ele>
        <time>2020-07-20T17:04:41Z</time>
      </trkpt>
      <trkpt lat="51.21802407414" lon="4.457690388822">
        <ele>3.6</ele>
        <time>2020-07-20T17:04:59Z</time>
      </trkpt>
      <trkpt lat="51.217965987573" lon="4.458563782802">
        <ele>1.4</ele>
        <time>2020-07-20T17:05:18Z</time>
      </trkpt>
      <trkpt lat="51.217950816334" lon="4.459464837052">
        <ele>0.6</ele>
        <time>2020-07-20T17:05:35Z</time>
      </trkpt>
      <trkpt lat="51.217900273477" lon="4.460321551051">
        <ele>0</ele>
        <time>2020-07-20T17:05:52Z</time>
      </trkpt>
      <trkpt lat="51.217769683475" lon="4.461135936455">
        <ele>0</ele>
        <time>2020-07-20T17:06:12Z</time>
      </trkpt>
      <trkpt lat="51.217285293474" lon="4.461538938207">
        <ele>0</ele>
        <time>2020-07-20T17:06:28Z</time>
      </trkpt>
      <trkpt lat="51.216781457465" lon="4.46186641904">
        <ele>0</ele>
        <time>2020-07-20T17:06:43Z</time>
      </trkpt>
      <trkpt lat="51.216289691392" lon="4.46224528092">
        <ele>0</ele>
        <time>2020-07-20T17:06:58Z</time>
      </trkpt>
      <trkpt lat="51.215768169574" lon="4.462601260213">
        <ele>0</ele>
        <time>2020-07-20T17:07:15Z</time>
      </trkpt>
      <trkpt lat="51.215558454436" lon="4.462696813873">
        <ele>0</ele>
        <time>2020-07-20T17:07:22Z</time>
      </trkpt>
      <trkpt lat="51.215266764316" lon="4.461998350146">
        <ele>0</ele>
        <time>2020-07-20T17:07:41Z</time>
      </trkpt>
      <trkpt lat="51.214953281256" lon="4.461269460122">
        <ele>0</ele>
        <time>2020-07-20T17:07:58Z</time>
      </trkpt>
      <trkpt lat="51.214642228947" lon="4.460563536504">
        <ele>0</ele>
        <time>2020-07-20T17:08:14Z</time>
      </trkpt>
      <trkpt lat="51.214307707318" lon="4.459831880453">
        <ele>1.4</ele>
        <time>2020-07-20T17:08:32Z</time>
      </trkpt>
      <trkpt lat="51.214038564509" lon="4.459074324331">
        <ele>6.8</ele>
        <time>2020-07-20T17:08:49Z</time>
      </trkpt>
      <trkpt lat="51.213989949489" lon="4.458170336416">
        <ele>0.8</ele>
        <time>2020-07-20T17:09:06Z</time>
      </trkpt>
      <trkpt lat="51.21422874982" lon="4.457364332912">
        <ele>0.4</ele>
        <time>2020-07-20T17:09:24Z</time>
      </trkpt>
      <trkpt lat="51.214378115278" lon="4.456533435165">
        <ele>1.4</ele>
        <time>2020-07-20T17:09:41Z</time>
      </trkpt>
      <trkpt lat="51.214561092155" lon="4.455708907662">
        <ele>0</ele>
        <time>2020-07-20T17:10:00Z</time>
      </trkpt>
      <trkpt lat="51.214787403455" lon="4.454909861135">
        <ele>0</ele>
        <time>2020-07-20T17:10:19Z</time>
      </trkpt>
      <trkpt lat="51.214996364222" lon="4.454082735243">
        <ele>0</ele>
        <time>2020-07-20T17:10:39Z</time>
      </trkpt>
      <trkpt lat="51.21507280715" lon="4.453205904684">
        <ele>0</ele>
        <time>2020-07-20T17:10:58Z</time>
      </trkpt>
      <trkpt lat="51.214897960716" lon="4.452371151263">
        <ele>0</ele>
        <time>2020-07-20T17:11:17Z</time>
      </trkpt>
      <trkpt lat="51.214352634302" lon="4.452400320275">
        <ele>3</ele>
        <time>2020-07-20T17:11:32Z</time>
      </trkpt>
      <trkpt lat="51.213825915706" lon="4.452622524444">
        <ele>3.6</ele>
        <time>2020-07-20T17:11:47Z</time>
      </trkpt>
      <trkpt lat="51.213615697654" lon="4.452574663795">
        <ele>2</ele>
        <time>2020-07-20T17:11:55Z</time>
      </trkpt>
      <trkpt lat="51.213598682397" lon="4.451715267588">
        <ele>0</ele>
        <time>2020-07-20T17:12:13Z</time>
      </trkpt>
      <trkpt lat="51.213576135086" lon="4.450846148377">
        <ele>0</ele>
        <time>2020-07-20T17:12:32Z</time>
      </trkpt>
      <trkpt lat="51.213434313338" lon="4.450006533454">
        <ele>5.2</ele>
        <time>2020-07-20T17:12:55Z</time>
      </trkpt>
      <trkpt lat="51.213373293106" lon="4.449844930422">
        <ele>7.8</ele>
        <time>2020-07-20T17:12:59Z</time>
      </trkpt>
      <trkpt lat="51.213177911017" lon="4.449048147008">
        <ele>0</ele>
        <time>2020-07-20T17:13:18Z</time>
      </trkpt>
      <trkpt lat="51.213368934518" lon="4.448397879206">
        <ele>0</ele>
        <time>2020-07-20T17:13:31Z</time>
      </trkpt>
      <trkpt lat="51.21332937195" lon="4.448150529337">
        <ele>1</ele>
        <time>2020-07-20T17:13:34Z</time>
      </trkpt>
      <trkpt lat="51.21326315494" lon="4.448014574919">
        <ele>3.4</ele>
        <time>2020-07-20T17:13:36Z</time>
      </trkpt>
      <trkpt lat="51.213114543853" lon="4.447851463145">
        <ele>4</ele>
        <time>2020-07-20T17:13:39Z</time>
      </trkpt>
      <trkpt lat="51.212619927934" lon="4.447493556015">
        <ele>3.6</ele>
        <time>2020-07-20T17:13:48Z</time>
      </trkpt>
      <trkpt lat="51.212091281501" lon="4.447269759285">
        <ele>0</ele>
        <time>2020-07-20T17:14:12Z</time>
      </trkpt>
      <trkpt lat="51.211556432462" lon="4.447036993922">
        <ele>1.8</ele>
        <time>2020-07-20T17:14:36Z</time>
      </trkpt>
      <trkpt lat="51.211020409957" lon="4.446723594681">
        <ele>2.4</ele>
        <time>2020-07-20T17:14:57Z</time>
      </trkpt>
      <trkpt lat="51.210555046869" lon="4.446261751991">
        <ele>1.8</ele>
        <time>2020-07-20T17:15:13Z</time>
      </trkpt>
      <trkpt lat="51.210067471746" lon="4.445829748865">
        <ele>2.4</ele>
        <time>2020-07-20T17:15:30Z</time>
      </trkpt>
      <trkpt lat="51.209593810577" lon="4.445419287222">
        <ele>1.6</ele>
        <time>2020-07-20T17:15:45Z</time>
      </trkpt>
      <trkpt lat="51.209101960685" lon="4.445055261305">
        <ele>4</ele>
        <time>2020-07-20T17:16:02Z</time>
      </trkpt>
      <trkpt lat="51.208606841852" lon="4.44473465363">
        <ele>2.4</ele>
        <time>2020-07-20T17:16:21Z</time>
      </trkpt>
      <trkpt lat="51.208384972959" lon="4.444042895423">
        <ele>0</ele>
        <time>2020-07-20T17:16:45Z</time>
      </trkpt>
      <trkpt lat="51.208295370448" lon="4.443172351289">
        <ele>1.8</ele>
        <time>2020-07-20T17:17:03Z</time>
      </trkpt>
      <trkpt lat="51.208282462322" lon="4.442300717508">
        <ele>0.8</ele>
        <time>2020-07-20T17:17:21Z</time>
      </trkpt>
      <trkpt lat="51.208351529178" lon="4.441874833169">
        <ele>0</ele>
        <time>2020-07-20T17:17:35Z</time>
      </trkpt>
      <trkpt lat="51.208372651566" lon="4.441809454349">
        <ele>0.4</ele>
        <time>2020-07-20T17:18:29Z</time>
      </trkpt>
      <trkpt lat="51.208480694257" lon="4.440941927699">
        <ele>0.2</ele>
        <time>2020-07-20T17:18:49Z</time>
      </trkpt>
      <trkpt lat="51.208518915721" lon="4.440814019905">
        <ele>0.6</ele>
        <time>2020-07-20T17:18:52Z</time>
      </trkpt>
      <trkpt lat="51.208929293545" lon="4.441298158449">
        <ele>1.2</ele>
        <time>2020-07-20T17:19:15Z</time>
      </trkpt>
      <trkpt lat="51.209297510412" lon="4.441930824261">
        <ele>0</ele>
        <time>2020-07-20T17:19:35Z</time>
      </trkpt>
      <trkpt lat="51.209680144147" lon="4.442552593603">
        <ele>0</ele>
        <time>2020-07-20T17:19:54Z</time>
      </trkpt>
      <trkpt lat="51.210114578024" lon="4.443115354369">
        <ele>0</ele>
        <time>2020-07-20T17:20:15Z</time>
      </trkpt>
      <trkpt lat="51.210551275014" lon="4.443653304711">
        <ele>0</ele>
        <time>2020-07-20T17:20:37Z</time>
      </trkpt>
      <trkpt lat="51.211035078282" lon="4.444135096323">
        <ele>4.8</ele>
        <time>2020-07-20T17:20:57Z</time>
      </trkpt>
      <trkpt lat="51.211580320877" lon="4.444780921718">
        <ele>0</ele>
        <time>2020-07-20T17:21:20Z</time>
      </trkpt>
      <trkpt lat="51.212064878516" lon="4.445273442162">
        <ele>0</ele>
        <time>2020-07-20T17:21:36Z</time>
      </trkpt>
      <trkpt lat="51.212582628479" lon="4.445635121147">
        <ele>0.8</ele>
        <time>2020-07-20T17:21:51Z</time>
      </trkpt>
      <trkpt lat="51.213091242171" lon="4.446016413778">
        <ele>0</ele>
        <time>2020-07-20T17:22:09Z</time>
      </trkpt>
      <trkpt lat="51.213113538025" lon="4.446036949433">
        <ele>0</ele>
        <time>2020-07-20T17:22:10Z</time>
      </trkpt>
      <trkpt lat="51.213293665056" lon="4.446242808897">
        <ele>0</ele>
        <time>2020-07-20T17:22:55Z</time>
      </trkpt>
      <trkpt lat="51.213528609713" lon="4.446428887077">
        <ele>0</ele>
        <time>2020-07-20T17:23:08Z</time>
      </trkpt>
      <trkpt lat="51.214065973322" lon="4.446515472104">
        <ele>0</ele>
        <time>2020-07-20T17:23:25Z</time>
      </trkpt>
      <trkpt lat="51.214598475429" lon="4.446695682954">
        <ele>0</ele>
        <time>2020-07-20T17:23:41Z</time>
      </trkpt>
      <trkpt lat="51.214982869363" lon="4.447260706833">
        <ele>0</ele>
        <time>2020-07-20T17:24:02Z</time>
      </trkpt>
      <trkpt lat="51.21557655934" lon="4.447306807283">
        <ele>0</ele>
        <time>2020-07-20T17:24:14Z</time>
      </trkpt>
      <trkpt lat="51.216118616813" lon="4.447334886648">
        <ele>0</ele>
        <time>2020-07-20T17:24:25Z</time>
      </trkpt>
      <trkpt lat="51.216669978195" lon="4.447405713703">
        <ele>0</ele>
        <time>2020-07-20T17:24:40Z</time>
      </trkpt>
      <trkpt lat="51.217204994872" lon="4.447649375536">
        <ele>0</ele>
        <time>2020-07-20T17:24:58Z</time>
      </trkpt>
      <trkpt lat="51.21771813479" lon="4.447649375536">
        <ele>0</ele>
        <time>2020-07-20T17:25:21Z</time>
      </trkpt>
      <trkpt lat="51.21792265315" lon="4.448472813392">
        <ele>0</ele>
        <time>2020-07-20T17:25:38Z</time>
      </trkpt>
      <trkpt lat="51.21796204808" lon="4.448678086123">
        <ele>0</ele>
        <time>2020-07-20T17:25:42Z</time>
      </trkpt>
      <trkpt lat="51.218074868454" lon="4.449531447362">
        <ele>0</ele>
        <time>2020-07-20T17:26:00Z</time>
      </trkpt>
      <trkpt lat="51.218195651633" lon="4.450381791117">
        <ele>1.2</ele>
        <time>2020-07-20T17:26:19Z</time>
      </trkpt>
      <trkpt lat="51.21835683557" lon="4.451209755199">
        <ele>1.6</ele>
        <time>2020-07-20T17:26:37Z</time>
      </trkpt>
      <trkpt lat="51.218573591504" lon="4.45204031767">
        <ele>0.2</ele>
        <time>2020-07-20T17:26:54Z</time>
      </trkpt>
      <trkpt lat="51.218885901098" lon="4.452837939274">
        <ele>0</ele>
        <time>2020-07-20T17:27:06Z</time>
      </trkpt>
      <trkpt lat="51.21916149797" lon="4.453474293122">
        <ele>0</ele>
        <time>2020-07-20T17:27:15Z</time>
      </trkpt>
      <trkpt lat="51.219485542224" lon="4.454224137896">
        <ele>0</ele>
        <time>2020-07-20T17:27:29Z</time>
      </trkpt>
      <trkpt lat="51.219807071908" lon="4.454980604371">
        <ele>14.8</ele>
        <time>2020-07-20T17:27:45Z</time>
      </trkpt>
      <trkpt lat="51.220172271291" lon="4.455343037727">
        <ele>37.2</ele>
        <time>2020-07-20T17:28:06Z</time>
      </trkpt>
      <trkpt lat="51.220103539711" lon="4.455366423228">
        <ele>23.4</ele>
        <time>2020-07-20T17:28:26Z</time>
      </trkpt>
      <trkpt lat="51.220441162643" lon="4.454654380823">
        <ele>3.2</ele>
        <time>2020-07-20T17:28:46Z</time>
      </trkpt>
      <trkpt lat="51.220932090526" lon="4.454262107903">
        <ele>2.6</ele>
        <time>2020-07-20T17:29:05Z</time>
      </trkpt>
      <trkpt lat="51.221501389174" lon="4.454272669097">
        <ele>1</ele>
        <time>2020-07-20T17:29:21Z</time>
      </trkpt>
      <trkpt lat="51.222058869343" lon="4.454310220009">
        <ele>1.2</ele>
        <time>2020-07-20T17:29:37Z</time>
      </trkpt>
      <trkpt lat="51.222600423902" lon="4.454239141497">
        <ele>0.6</ele>
        <time>2020-07-20T17:29:53Z</time>
      </trkpt>
      <trkpt lat="51.223160167184" lon="4.454318601909">
        <ele>2.2</ele>
        <time>2020-07-20T17:30:12Z</time>
      </trkpt>
      <trkpt lat="51.223707924349" lon="4.454452377033">
        <ele>4.6</ele>
        <time>2020-07-20T17:30:31Z</time>
      </trkpt>
      <trkpt lat="51.224270685115" lon="4.454564694493">
        <ele>6</ele>
        <time>2020-07-20T17:30:54Z</time>
      </trkpt>
      <trkpt lat="51.224800924109" lon="4.454419687623">
        <ele>3.8</ele>
        <time>2020-07-20T17:31:15Z</time>
      </trkpt>
      <trkpt lat="51.224845348179" lon="4.453525674169">
        <ele>0</ele>
        <time>2020-07-20T17:31:34Z</time>
      </trkpt>
      <trkpt lat="51.224880216883" lon="4.452634091466">
        <ele>0</ele>
        <time>2020-07-20T17:31:53Z</time>
      </trkpt>
      <trkpt lat="51.225100409396" lon="4.451838481518">
        <ele>0</ele>
        <time>2020-07-20T17:32:12Z</time>
      </trkpt>
      <trkpt lat="51.225365947988" lon="4.451071537668">
        <ele>0</ele>
        <time>2020-07-20T17:32:31Z</time>
      </trkpt>
      <trkpt lat="51.225669875682" lon="4.450708936674">
        <ele>0</ele>
        <time>2020-07-20T17:32:44Z</time>
      </trkpt>
      <trkpt lat="51.226044462793" lon="4.450078701613">
        <ele>0</ele>
        <time>2020-07-20T17:33:05Z</time>
      </trkpt>
      <trkpt lat="51.226431371297" lon="4.44945114876">
        <ele>0</ele>
        <time>2020-07-20T17:33:24Z</time>
      </trkpt>
      <trkpt lat="51.226848370822" lon="4.448906828174">
        <ele>0</ele>
        <time>2020-07-20T17:33:43Z</time>
      </trkpt>
      <trkpt lat="51.227232261842" lon="4.448296542035">
        <ele>0</ele>
        <time>2020-07-20T17:34:04Z</time>
      </trkpt>
      <trkpt lat="51.227616655776" lon="4.447690865941">
        <ele>0</ele>
        <time>2020-07-20T17:34:24Z</time>
      </trkpt>
      <trkpt lat="51.227991159068" lon="4.447065995296">
        <ele>0</ele>
        <time>2020-07-20T17:34:45Z</time>
      </trkpt>
      <trkpt lat="51.228424838574" lon="4.446533577008">
        <ele>0</ele>
        <time>2020-07-20T17:35:07Z</time>
      </trkpt>
      <trkpt lat="51.228850890551" lon="4.445964865093">
        <ele>0</ele>
        <time>2020-07-20T17:35:26Z</time>
      </trkpt>
      <trkpt lat="51.229260765461" lon="4.44536078156">
        <ele>0</ele>
        <time>2020-07-20T17:35:44Z</time>
      </trkpt>
      <trkpt lat="51.229683548497" lon="4.44481344349">
        <ele>0</ele>
        <time>2020-07-20T17:36:04Z</time>
      </trkpt>
      <trkpt lat="51.229707269274" lon="4.444811599472">
        <ele>0</ele>
        <time>2020-07-20T17:36:06Z</time>
      </trkpt>
      <trkpt lat="51.22971431007" lon="4.444902710725">
        <ele>0</ele>
        <time>2020-07-20T17:36:41Z</time>
      </trkpt>
      <trkpt lat="51.229967275812" lon="4.44564995711">
        <ele>0</ele>
        <time>2020-07-20T17:37:03Z</time>
      </trkpt>
      <trkpt lat="51.230211859654" lon="4.446431736923">
        <ele>0.2</ele>
        <time>2020-07-20T17:37:22Z</time>
      </trkpt>
      <trkpt lat="51.230485025775" lon="4.447220473713">
        <ele>3.2</ele>
        <time>2020-07-20T17:37:39Z</time>
      </trkpt>
      <trkpt lat="51.230693818904" lon="4.448026141941">
        <ele>4.6</ele>
        <time>2020-07-20T17:37:56Z</time>
      </trkpt>
      <trkpt lat="51.230902695852" lon="4.448852262005">
        <ele>4.4</ele>
        <time>2020-07-20T17:38:14Z</time>
      </trkpt>
      <trkpt lat="51.231103358538" lon="4.449695145869">
        <ele>3.8</ele>
        <time>2020-07-20T17:38:32Z</time>
      </trkpt>
      <trkpt lat="51.231212239419" lon="4.450398974012">
        <ele>3</ele>
        <time>2020-07-20T17:38:46Z</time>
      </trkpt>
      <trkpt lat="51.23068493409" lon="4.450603157096">
        <ele>0.2</ele>
        <time>2020-07-20T17:39:02Z</time>
      </trkpt>
      <trkpt lat="51.230143295712" lon="4.450751516726">
        <ele>1</ele>
        <time>2020-07-20T17:39:20Z</time>
      </trkpt>
      <trkpt lat="51.229605093913" lon="4.451006494124">
        <ele>0.8</ele>
        <time>2020-07-20T17:39:44Z</time>
      </trkpt>
      <trkpt lat="51.229069071408" lon="4.451233056881">
        <ele>0</ele>
        <time>2020-07-20T17:40:01Z</time>
      </trkpt>
      <trkpt lat="51.228626423269" lon="4.450809100379">
        <ele>8</ele>
        <time>2020-07-20T17:40:21Z</time>
      </trkpt>
      <trkpt lat="51.22828854888" lon="4.450108708815">
        <ele>9.6</ele>
        <time>2020-07-20T17:40:43Z</time>
      </trkpt>
      <trkpt lat="51.227936006166" lon="4.449402030826">
        <ele>7</ele>
        <time>2020-07-20T17:41:01Z</time>
      </trkpt>
      <trkpt lat="51.227877249047" lon="4.449284097493">
        <ele>5.6</ele>
        <time>2020-07-20T17:41:04Z</time>
      </trkpt>
      <trkpt lat="51.228248986312" lon="4.448615389511">
        <ele>0.4</ele>
        <time>2020-07-20T17:41:20Z</time>
      </trkpt>
      <trkpt lat="51.22863472135" lon="4.447965289347">
        <ele>2.8</ele>
        <time>2020-07-20T17:41:37Z</time>
      </trkpt>
      <trkpt lat="51.228800263875" lon="4.447926229693">
        <ele>0</ele>
        <time>2020-07-20T17:41:43Z</time>
      </trkpt>
      <trkpt lat="51.228961531631" lon="4.448578257694">
        <ele>0</ele>
        <time>2020-07-20T17:42:06Z</time>
      </trkpt>
      <trkpt lat="51.228893386784" lon="4.448682612349">
        <ele>0</ele>
        <time>2020-07-20T17:42:14Z</time>
      </trkpt>
      <trkpt lat="51.22886103265" lon="4.448785542081">
        <ele>4.8</ele>
        <time>2020-07-20T17:42:46Z</time>
      </trkpt>
      <trkpt lat="51.228619801568" lon="4.449150490007">
        <ele>0</ele>
        <time>2020-07-20T17:42:59Z</time>
      </trkpt>
      <trkpt lat="51.228690712442" lon="4.448994251391">
        <ele>0</ele>
        <time>2020-07-20T17:43:05Z</time>
      </trkpt>
      <trkpt lat="51.228729185363" lon="4.449027359896">
        <ele>0</ele>
        <time>2020-07-20T17:43:07Z</time>
      </trkpt>
      <trkpt lat="51.228551908178" lon="4.44930949465">
        <ele>0</ele>
        <time>2020-07-20T17:43:20Z</time>
      </trkpt>
    </trkseg>
  </trk>
</gpx>